KPNC/PNC METAR and TAF weather

Enter ICAO airport designator
Station Type Date Time Source
KPNC METAR 2019/04/20 17:53 UTC NOAA

KPNC 201753Z AUTO 18010KT 10SM CLR 23/06 A2996 RMK AO2 SLP139 T02330056 10239 20039 58017


Station Type Date Time Source
KPNC Decoded METAR 2019/04/20 17:53 UTC NOAA

PONCA CITY MUNICIPAL AIRPORT, OK, United States (KPNC) 36-44N 97-06W 308M
Apr 20, 2019 - 01:53 PM EDT / 2019.04.20 1753 UTC
Wind: from the S (180 degrees) at 12 MPH (10 KT):0
Visibility: 10 mile(s):0
Sky conditions: clear
Temperature: 73.9 F (23.3 C)
Dew Point: 42.1 F (5.6 C)
Relative Humidity: 31%
Pressure (altimeter): 29.96 in. Hg (1014 hPa)
Pressure tendency: 0.05 inches (1.7 hPa) lower than three hours ago
ob: KPNC 201753Z AUTO 18010KT 10SM CLR 23/06 A2996 RMK AO2 SLP139 T02330056 10239 20039 58017
cycle: 18

Station Type Date Time Source
KPNC TAF 2019/04/20 18:36 UTC NOAA

TAF KPNC 201734Z 2018/2118 18012KT P6SM SKC
FM210400 16014KT P6SM FEW150 WS015/19050KT
FM211400 17017G25KT P6SM BKN150

Example: see airport list